createdAt,value
2022-11-09T00:01:41.542Z,3.85
2022-11-09T00:04:08.376Z,4.45
2022-11-09T00:06:35.946Z,4.60
2022-11-09T00:09:07.785Z,4.55
2022-11-09T00:11:34.541Z,4.30
2022-11-09T00:14:00.961Z,4.70
2022-11-09T00:16:27.423Z,4.40
2022-11-09T00:18:53.916Z,4.13
2022-11-09T00:21:23.228Z,4.30
2022-11-09T00:23:50.995Z,4.07
2022-11-09T00:26:18.773Z,4.15
2022-11-09T00:28:45.634Z,4.10
2022-11-09T00:31:14.849Z,4.35
2022-11-09T00:33:41.540Z,3.97
2022-11-09T00:36:11.358Z,4.55
2022-11-09T00:38:40.332Z,4.43
2022-11-09T00:41:08.712Z,4.00
2022-11-09T00:43:35.176Z,4.07
2022-11-09T00:46:01.712Z,3.50
2022-11-09T00:48:28.394Z,3.85
2022-11-09T00:50:56.528Z,4.15
2022-11-09T00:53:24.024Z,4.13
2022-11-09T00:56:11.607Z,3.85
2022-11-09T00:58:38.812Z,4.20
2022-11-09T01:01:14.424Z,3.72
2022-11-09T01:03:41.690Z,4.78
2022-11-09T01:06:09.102Z,4.47
2022-11-09T01:08:35.773Z,4.30
2022-11-09T01:11:09.442Z,4.43
2022-11-09T01:13:37.470Z,4.80
2022-11-09T01:16:12.372Z,4.55
2022-11-09T01:18:39.539Z,5.60
2022-11-09T01:21:09.486Z,5.05
2022-11-09T01:23:36.370Z,6.20
2022-11-09T01:26:05.923Z,6.20
2022-11-09T01:28:32.491Z,5.90
2022-11-09T01:31:04.850Z,5.85
2022-11-09T01:33:31.915Z,6.55
2022-11-09T01:36:06.457Z,5.72
2022-11-09T01:38:32.956Z,6.10
2022-11-09T01:40:59.605Z,5.57
2022-11-09T01:43:26.082Z,5.55
2022-11-09T01:46:01.192Z,6.03
2022-11-09T01:48:40.379Z,5.65
2022-11-09T01:51:12.719Z,5.05
2022-11-09T01:53:44.031Z,5.70
2022-11-09T01:56:13.602Z,5.60
2022-11-09T01:58:58.429Z,5.53
2022-11-09T02:01:25.570Z,4.88
2022-11-09T02:03:56.986Z,4.93
2022-11-09T02:06:27.349Z,4.60
2022-11-09T02:08:58.452Z,4.32
2022-11-09T02:11:27.371Z,4.45
2022-11-09T02:13:58.235Z,4.95
2022-11-09T02:16:24.960Z,5.38
2022-11-09T02:18:57.442Z,5.63
2022-11-09T02:21:27.086Z,5.10
2022-11-09T02:23:53.700Z,4.75
2022-11-09T02:26:41.358Z,5.43
2022-11-09T02:29:09.967Z,4.47
2022-11-09T02:31:42.233Z,5.53
2022-11-09T02:34:13.304Z,5.65
2022-11-09T02:36:39.709Z,6.05
2022-11-09T02:39:06.876Z,6.22
2022-11-09T02:41:40.581Z,5.80
2022-11-09T02:44:07.004Z,5.80
2022-11-09T02:46:35.987Z,5.95
2022-11-09T02:49:03.958Z,5.28
2022-11-09T02:51:30.488Z,5.53
2022-11-09T02:53:56.903Z,5.20
2022-11-09T02:56:23.851Z,4.43
2022-11-09T02:58:50.877Z,4.60
2022-11-09T03:01:17.388Z,4.10
2022-11-09T03:03:43.927Z,3.90
2022-11-09T03:06:10.388Z,3.85
2022-11-09T03:08:36.871Z,3.90
2022-11-09T03:11:03.694Z,4.65
2022-11-09T03:13:30.109Z,3.88
2022-11-09T03:15:56.500Z,3.95
2022-11-09T03:18:23.074Z,4.10
2022-11-09T03:20:49.563Z,4.57
2022-11-09T03:23:16.073Z,5.68
2022-11-09T03:25:42.523Z,5.30
2022-11-09T03:28:08.968Z,5.15
2022-11-09T03:30:35.581Z,6.05
2022-11-09T03:33:05.029Z,6.30
2022-11-09T03:35:31.555Z,6.03
2022-11-09T03:37:57.989Z,5.88
2022-11-09T03:40:24.505Z,5.95
2022-11-09T03:42:50.938Z,6.15
2022-11-09T03:45:17.447Z,5.57
2022-11-09T03:47:45.156Z,5.88
2022-11-09T03:50:12.685Z,6.85
2022-11-09T03:52:39.602Z,7.70
2022-11-09T03:55:06.806Z,7.00
2022-11-09T03:57:33.228Z,6.13
2022-11-09T03:59:59.679Z,7.53
2022-11-09T04:02:26.177Z,7.32
2022-11-09T04:04:52.648Z,7.72
2022-11-09T04:07:19.188Z,8.20
2022-11-09T04:09:45.610Z,7.30
2022-11-09T04:12:12.011Z,7.18
2022-11-09T04:14:38.407Z,7.40
2022-11-09T04:17:04.903Z,7.72
2022-11-09T04:19:31.320Z,7.75
2022-11-09T04:21:57.757Z,7.97
2022-11-09T04:24:24.195Z,7.57
2022-11-09T04:26:50.602Z,8.07
2022-11-09T04:29:17.142Z,7.95
2022-11-09T04:31:43.535Z,7.70
2022-11-09T04:34:09.916Z,7.43
2022-11-09T04:36:36.328Z,7.72
2022-11-09T04:39:02.728Z,6.53
2022-11-09T04:41:29.119Z,7.38
2022-11-09T04:43:55.513Z,7.85
2022-11-09T04:46:22.037Z,7.50
2022-11-09T04:48:48.510Z,7.03
2022-11-09T04:51:15.113Z,6.78
2022-11-09T04:53:41.658Z,6.93
2022-11-09T04:56:08.397Z,8.38
2022-11-09T04:58:35.120Z,8.70
2022-11-09T05:01:06.513Z,9.15
2022-11-09T05:03:33.676Z,9.13
2022-11-09T05:06:00.264Z,9.40
2022-11-09T05:08:26.931Z,9.18
2022-11-09T05:10:57.821Z,9.77
2022-11-09T05:13:24.223Z,8.02
2022-11-09T05:15:50.670Z,7.90
2022-11-09T05:18:17.065Z,8.38
2022-11-09T05:20:43.439Z,8.23
2022-11-09T05:23:28.221Z,7.38
2022-11-09T05:25:54.650Z,7.95
2022-11-09T05:28:21.117Z,8.57
2022-11-09T05:30:47.523Z,7.45
2022-11-09T05:33:14.747Z,7.47
2022-11-09T05:35:41.134Z,7.13
2022-11-09T05:38:07.537Z,7.72
2022-11-09T05:40:34.694Z,8.48
2022-11-09T05:43:01.119Z,8.13
2022-11-09T05:45:41.917Z,7.93
2022-11-09T05:48:10.144Z,8.68
2022-11-09T05:50:37.525Z,8.00
2022-11-09T05:53:04.036Z,7.78
2022-11-09T05:55:30.466Z,7.68
2022-11-09T05:57:56.887Z,7.45
2022-11-09T06:00:23.447Z,7.50
2022-11-09T06:02:50.199Z,7.97
2022-11-09T06:05:16.953Z,8.45
2022-11-09T06:07:43.462Z,7.18
2022-11-09T06:10:11.012Z,7.70
2022-11-09T06:12:37.471Z,7.63
2022-11-09T06:15:05.369Z,8.07
2022-11-09T06:17:31.827Z,7.30
2022-11-09T06:19:58.230Z,8.95
2022-11-09T06:22:24.684Z,8.32
2022-11-09T06:24:51.171Z,8.18
2022-11-09T06:27:17.651Z,8.50
2022-11-09T06:29:44.054Z,8.10
2022-11-09T06:32:10.463Z,8.07
2022-11-09T06:34:36.867Z,8.10
2022-11-09T06:37:03.251Z,7.88
2022-11-09T06:39:29.658Z,7.93
2022-11-09T06:41:56.102Z,7.85
2022-11-09T06:44:22.523Z,8.70
2022-11-09T06:46:48.939Z,8.60
2022-11-09T06:49:15.382Z,8.85
2022-11-09T06:51:41.771Z,7.93
2022-11-09T06:54:08.170Z,8.38
2022-11-09T06:56:34.821Z,9.00
2022-11-09T06:59:01.234Z,8.75
2022-11-09T07:01:29.207Z,10.07
2022-11-09T07:03:56.212Z,9.65
2022-11-09T07:06:23.061Z,8.70
2022-11-09T07:08:49.570Z,9.00
2022-11-09T07:11:16.827Z,8.02
2022-11-09T07:13:43.276Z,9.13
2022-11-09T07:16:12.052Z,9.00
2022-11-09T07:18:38.713Z,8.75
2022-11-09T07:21:11.438Z,8.38
2022-11-09T07:23:40.724Z,8.65
2022-11-09T07:26:07.201Z,8.25
2022-11-09T07:28:34.072Z,7.68
2022-11-09T07:31:01.032Z,7.72
2022-11-09T07:33:30.324Z,8.63
2022-11-09T07:35:58.927Z,7.95
2022-11-09T07:38:25.696Z,7.50
2022-11-09T07:40:52.153Z,7.95
2022-11-09T07:43:19.295Z,7.68
2022-11-09T07:45:46.161Z,7.15
2022-11-09T07:48:14.281Z,7.32
2022-11-09T07:50:41.695Z,8.18
2022-11-09T07:53:10.498Z,8.95
2022-11-09T07:55:36.955Z,8.98
2022-11-09T07:58:06.947Z,8.38
2022-11-09T08:00:35.300Z,8.95
2022-11-09T08:03:01.779Z,8.88
2022-11-09T08:05:28.822Z,9.85
2022-11-09T08:07:58.814Z,9.02
2022-11-09T08:10:26.745Z,7.15
2022-11-09T08:12:58.461Z,7.82
2022-11-09T08:15:25.906Z,6.93
2022-11-09T08:17:52.762Z,7.50
2022-11-09T08:20:20.224Z,7.45
2022-11-09T08:22:47.561Z,7.57
2022-11-09T08:25:14.945Z,6.75
2022-11-09T08:27:41.661Z,7.72
2022-11-09T08:30:12.916Z,7.80
2022-11-09T08:32:39.728Z,8.60
2022-11-09T08:35:10.172Z,8.13
2022-11-09T08:37:38.202Z,9.43
2022-11-09T08:40:06.612Z,7.63
2022-11-09T08:42:33.192Z,7.93
2022-11-09T08:44:59.606Z,8.00
2022-11-09T08:47:26.114Z,8.07
2022-11-09T08:49:52.509Z,8.25
2022-11-09T08:52:18.943Z,7.90
2022-11-09T08:54:45.409Z,6.65
2022-11-09T08:57:12.469Z,7.07
2022-11-09T08:59:38.932Z,7.38
2022-11-09T09:02:05.870Z,6.40
2022-11-09T09:04:32.385Z,6.50
2022-11-09T09:07:00.257Z,6.72
2022-11-09T09:09:27.269Z,7.45
2022-11-09T09:11:53.746Z,7.38
2022-11-09T09:14:20.258Z,7.45
2022-11-09T09:16:46.689Z,7.57
2022-11-09T09:19:13.191Z,8.02
2022-11-09T09:21:39.658Z,8.85
2022-11-09T09:24:06.242Z,8.20
2022-11-09T09:26:32.840Z,8.05
2022-11-09T09:28:59.247Z,8.35
2022-11-09T09:31:25.683Z,7.97
2022-11-09T09:33:52.239Z,8.90
2022-11-09T09:36:20.825Z,8.07
2022-11-09T09:38:50.598Z,9.07
2022-11-09T09:41:37.209Z,7.53
2022-11-09T09:44:31.717Z,7.47
2022-11-09T09:47:04.111Z,7.53
2022-11-09T09:49:34.557Z,8.05
2022-11-09T09:52:17.876Z,9.00
2022-11-09T09:55:05.556Z,9.43
2022-11-09T09:57:35.452Z,8.15
2022-11-09T10:00:07.940Z,7.80
2022-11-09T10:02:37.553Z,7.85
2022-11-09T10:05:12.075Z,8.20
2022-11-09T10:07:53.876Z,8.88
2022-11-09T10:11:05.571Z,8.90
2022-11-09T10:13:57.140Z,8.35
2022-11-09T10:16:27.751Z,8.45
2022-11-09T10:19:06.337Z,7.97
2022-11-09T10:21:41.757Z,7.63
2022-11-09T10:24:17.504Z,7.50
2022-11-09T10:26:49.387Z,6.93
2022-11-09T10:29:23.093Z,7.47
2022-11-09T10:31:52.995Z,6.95
2022-11-09T10:34:44.167Z,6.72
2022-11-09T10:37:16.210Z,6.70
2022-11-09T10:39:50.686Z,6.68
2022-11-09T10:42:17.131Z,6.18
2022-11-09T10:44:43.608Z,5.57
2022-11-09T10:47:13.364Z,5.35
2022-11-09T10:49:40.899Z,5.53
2022-11-09T10:52:44.160Z,6.13
2022-11-09T10:55:28.380Z,6.57
2022-11-09T10:58:04.799Z,6.63
2022-11-09T11:00:33.298Z,8.32
2022-11-09T11:03:11.175Z,7.63
2022-11-09T11:05:38.960Z,7.60
2022-11-09T11:08:31.277Z,7.57
2022-11-09T11:11:32.853Z,7.60
2022-11-09T11:14:19.984Z,7.95
2022-11-09T11:16:50.833Z,8.50
2022-11-09T11:19:26.424Z,7.50
2022-11-09T11:22:10.895Z,9.00
2022-11-09T11:25:11.508Z,8.73
2022-11-09T11:27:43.966Z,8.18
2022-11-09T11:30:15.758Z,8.20
2022-11-09T11:32:47.250Z,8.07
2022-11-09T11:35:36.292Z,7.97
2022-11-09T11:38:21.924Z,7.35
2022-11-09T11:41:03.870Z,7.30
2022-11-09T11:43:53.366Z,6.82
2022-11-09T11:46:38.166Z,6.95
2022-11-09T11:49:34.268Z,6.53
2022-11-09T11:52:12.628Z,5.60
2022-11-09T11:54:42.155Z,6.53
2022-11-09T11:57:31.542Z,6.60
2022-11-09T12:00:15.275Z,5.82
2022-11-09T12:03:08.245Z,6.45
2022-11-09T12:05:43.710Z,5.63
2022-11-09T12:08:25.511Z,6.13
2022-11-09T12:11:21.540Z,5.93
2022-11-09T12:14:08.642Z,6.22
2022-11-09T12:16:45.980Z,6.10
2022-11-09T12:19:45.403Z,6.28
2022-11-09T12:22:32.904Z,5.97
2022-11-09T12:25:27.719Z,5.18
2022-11-09T12:28:01.487Z,5.70
2022-11-09T12:31:06.304Z,6.15
2022-11-09T12:33:45.204Z,5.75
2022-11-09T12:36:18.849Z,5.45
2022-11-09T12:38:58.733Z,5.43
2022-11-09T12:41:30.072Z,5.47
2022-11-09T12:44:15.921Z,6.50
2022-11-09T12:46:50.043Z,5.43
2022-11-09T12:49:33.547Z,5.63
2022-11-09T12:52:00.239Z,5.88
2022-11-09T12:54:27.612Z,5.57
2022-11-09T12:57:06.477Z,5.63
2022-11-09T12:59:54.088Z,5.88
2022-11-09T13:02:29.563Z,5.07
2022-11-09T13:05:02.468Z,5.43
2022-11-09T13:07:51.679Z,6.18
2022-11-09T13:10:26.178Z,5.88
2022-11-09T13:13:19.025Z,6.10
2022-11-09T13:16:20.638Z,5.57
2022-11-09T13:18:51.432Z,6.32
2022-11-09T13:21:23.700Z,6.90
2022-11-09T13:24:03.886Z,6.15
2022-11-09T13:26:32.276Z,5.85
2022-11-09T13:29:07.540Z,6.55
2022-11-09T13:32:00.567Z,6.22
2022-11-09T13:34:47.494Z,6.33
2022-11-09T13:37:58.193Z,6.10
2022-11-09T13:40:30.736Z,6.80
2022-11-09T13:43:04.743Z,6.57
2022-11-09T13:45:41.453Z,5.93
2022-11-09T13:48:23.240Z,6.40
2022-11-09T13:50:58.540Z,6.18
2022-11-09T13:53:27.958Z,6.55
2022-11-09T13:55:54.385Z,7.57
2022-11-09T13:58:41.300Z,6.47
2022-11-09T14:01:25.818Z,6.05
2022-11-09T14:03:52.398Z,6.53
2022-11-09T14:06:19.274Z,6.00
2022-11-09T14:08:46.872Z,5.63
2022-11-09T14:11:24.305Z,6.72
2022-11-09T14:14:29.539Z,6.28
2022-11-09T14:17:21.240Z,6.57
2022-11-09T14:19:58.465Z,6.65
2022-11-09T14:22:25.020Z,6.40
2022-11-09T14:24:51.521Z,14.27
2022-11-09T14:27:22.426Z,7.30
2022-11-09T14:29:59.196Z,6.68
2022-11-09T14:32:37.252Z,6.85
2022-11-09T14:35:21.051Z,6.28
2022-11-09T14:37:52.002Z,5.32
2022-11-09T14:40:30.815Z,6.03
2022-11-09T14:43:01.860Z,5.55
2022-11-09T14:45:29.325Z,5.38
2022-11-09T14:47:58.856Z,5.03
2022-11-09T14:50:33.545Z,5.13
2022-11-09T14:53:01.284Z,6.32
2022-11-09T14:55:28.455Z,6.00
2022-11-09T14:57:56.394Z,5.70
2022-11-09T15:00:26.252Z,6.05
2022-11-09T15:02:52.729Z,6.05
2022-11-09T15:05:41.639Z,5.93
2022-11-09T15:08:18.453Z,6.50
2022-11-09T15:10:50.642Z,6.10
2022-11-09T15:13:18.092Z,7.60
2022-11-09T15:15:52.594Z,7.85
2022-11-09T15:18:46.868Z,8.63
2022-11-09T15:21:39.619Z,9.70
2022-11-09T15:24:08.789Z,8.55
2022-11-09T15:26:41.550Z,7.90
2022-11-09T15:29:29.564Z,8.02
2022-11-09T15:32:17.673Z,7.95
2022-11-09T15:34:53.063Z,8.68
2022-11-09T15:37:26.620Z,8.45
2022-11-09T15:39:53.118Z,9.05
2022-11-09T15:42:20.557Z,9.25
2022-11-09T15:44:51.497Z,8.65
2022-11-09T15:47:27.731Z,8.45
2022-11-09T15:49:54.300Z,8.02
2022-11-09T15:52:20.739Z,7.78
2022-11-09T15:54:47.187Z,8.48
2022-11-09T15:57:19.338Z,8.77
2022-11-09T15:59:47.431Z,8.48
2022-11-09T16:02:14.335Z,7.93
2022-11-09T16:04:41.600Z,7.90
2022-11-09T16:07:12.974Z,7.15
2022-11-09T16:09:40.762Z,6.22
2022-11-09T16:12:07.315Z,6.00
2022-11-09T16:14:34.335Z,9.38
2022-11-09T16:17:00.826Z,9.15
2022-11-09T16:19:27.244Z,8.75
2022-11-09T16:21:54.166Z,8.70
2022-11-09T16:24:20.966Z,8.82
2022-11-09T16:26:47.835Z,8.93
2022-11-09T16:29:14.423Z,10.65
2022-11-09T16:31:51.474Z,8.85
2022-11-09T16:34:18.579Z,9.23
2022-11-09T16:36:50.920Z,7.80
2022-11-09T16:39:20.594Z,7.63
2022-11-09T16:41:50.053Z,7.75
2022-11-09T16:44:20.089Z,7.13
2022-11-09T16:46:48.031Z,7.07
2022-11-09T16:49:14.853Z,7.10
2022-11-09T16:51:41.316Z,7.20
2022-11-09T16:54:07.862Z,7.35
2022-11-09T16:56:35.322Z,7.60
2022-11-09T16:59:01.950Z,7.38
2022-11-09T17:01:28.452Z,6.90
2022-11-09T17:03:57.010Z,6.70
2022-11-09T17:06:23.467Z,6.35
2022-11-09T17:08:50.753Z,7.10
2022-11-09T17:11:17.576Z,6.28
2022-11-09T17:13:44.048Z,6.60
2022-11-09T17:16:12.624Z,7.05
2022-11-09T17:18:39.074Z,9.70
2022-11-09T17:21:11.072Z,9.35
2022-11-09T17:23:38.481Z,8.63
2022-11-09T17:26:06.903Z,7.88
2022-11-09T17:28:33.383Z,9.30
2022-11-09T17:31:00.017Z,11.40
2022-11-09T17:33:26.703Z,10.25
2022-11-09T17:36:08.495Z,9.20
2022-11-09T17:38:35.177Z,9.27
2022-11-09T17:41:21.886Z,10.27
2022-11-09T17:43:48.388Z,9.93
2022-11-09T17:46:20.557Z,15.73
2022-11-09T17:48:48.471Z,10.02
2022-11-09T17:51:17.503Z,9.20
2022-11-09T17:53:44.544Z,9.70
2022-11-09T17:56:11.751Z,10.52
2022-11-09T17:58:40.406Z,9.40
2022-11-09T18:01:08.502Z,8.95
2022-11-09T18:03:36.484Z,10.32
2022-11-09T18:06:04.909Z,9.68
2022-11-09T18:08:31.333Z,10.40
2022-11-09T18:10:59.240Z,9.55
2022-11-09T18:13:25.852Z,10.43
2022-11-09T18:15:52.468Z,10.05
2022-11-09T18:18:20.088Z,10.02
2022-11-09T18:20:46.754Z,9.18
2022-11-09T18:23:13.660Z,10.77
2022-11-09T18:25:40.148Z,10.68
2022-11-09T18:28:06.542Z,11.05
2022-11-09T18:30:32.939Z,11.35
2022-11-09T18:32:59.411Z,10.75
2022-11-09T18:35:25.930Z,9.95
2022-11-09T18:37:52.387Z,11.38
2022-11-09T18:40:18.858Z,11.35
2022-11-09T18:42:45.355Z,10.30
2022-11-09T18:45:11.859Z,12.55
2022-11-09T18:47:38.316Z,13.00
2022-11-09T18:50:05.599Z,13.23
2022-11-09T18:52:33.380Z,12.50
2022-11-09T18:54:59.979Z,12.27
2022-11-09T18:57:26.404Z,14.38
2022-11-09T18:59:52.841Z,13.68
2022-11-09T19:02:19.349Z,12.80
2022-11-09T19:04:46.010Z,13.93
2022-11-09T19:07:12.439Z,13.18
2022-11-09T19:09:39.172Z,13.43
2022-11-09T19:12:10.536Z,12.48
2022-11-09T19:14:40.984Z,11.35
2022-11-09T19:17:11.840Z,11.45
2022-11-09T19:19:38.287Z,11.52
2022-11-09T19:22:13.371Z,12.02
2022-11-09T19:24:39.764Z,11.13
2022-11-09T19:27:06.449Z,12.20
2022-11-09T19:29:32.962Z,13.20
2022-11-09T19:31:59.473Z,12.45
2022-11-09T19:34:26.019Z,13.85
2022-11-09T19:36:52.407Z,14.90
2022-11-09T19:39:18.868Z,13.70
2022-11-09T19:41:45.285Z,13.50
2022-11-09T19:44:15.000Z,13.55
2022-11-09T19:46:41.474Z,13.70
2022-11-09T19:49:09.238Z,13.75
2022-11-09T19:51:36.555Z,12.88
2022-11-09T19:54:04.538Z,27.02
2022-11-09T19:56:32.624Z,15.98
2022-11-09T19:59:01.821Z,14.60
2022-11-09T20:01:30.360Z,14.13
2022-11-09T20:03:58.565Z,12.60
2022-11-09T20:06:25.662Z,13.70
2022-11-09T20:08:53.829Z,12.85
2022-11-09T20:11:41.355Z,10.95
2022-11-09T20:14:09.365Z,11.35
2022-11-09T20:16:37.709Z,52.13
2022-11-09T20:19:06.449Z,12.63
2022-11-09T20:21:32.913Z,11.02
2022-11-09T20:23:59.394Z,9.75
2022-11-09T20:26:25.952Z,10.73
2022-11-09T20:28:53.539Z,10.07
2022-11-09T20:31:20.870Z,10.55
2022-11-09T20:33:48.030Z,11.73
2022-11-09T20:36:15.025Z,11.43
2022-11-09T20:38:42.006Z,12.88
2022-11-09T20:41:10.927Z,12.20
2022-11-09T20:43:38.063Z,13.65
2022-11-09T20:46:20.276Z,11.52
2022-11-09T20:48:53.975Z,11.65
2022-11-09T20:51:21.727Z,12.13
2022-11-09T20:53:49.656Z,11.73
2022-11-09T20:56:16.742Z,11.32
2022-11-09T20:58:43.302Z,11.20
2022-11-09T21:01:22.036Z,11.38
2022-11-09T21:03:50.797Z,10.45
2022-11-09T21:06:17.972Z,9.23
2022-11-09T21:08:54.389Z,8.80
2022-11-09T21:11:23.736Z,9.20
2022-11-09T21:13:51.358Z,13.90
2022-11-09T21:16:19.292Z,21.02
2022-11-09T21:18:46.106Z,11.93
2022-11-09T21:21:15.679Z,10.25
2022-11-09T21:24:01.020Z,9.32
2022-11-09T21:26:46.392Z,8.73
2022-11-09T21:29:34.139Z,7.78
2022-11-09T21:32:00.808Z,7.78
2022-11-09T21:34:32.711Z,7.43
2022-11-09T21:37:01.993Z,7.28
2022-11-09T21:39:28.409Z,8.18
2022-11-09T21:41:54.835Z,9.68
2022-11-09T21:44:21.318Z,10.10
2022-11-09T21:46:47.839Z,12.93
2022-11-09T21:49:14.374Z,13.38
2022-11-09T21:51:41.495Z,14.70
2022-11-09T21:54:09.170Z,8.32
2022-11-09T21:56:35.728Z,2.85
2022-11-09T21:59:02.185Z,4.22
2022-11-09T22:01:28.646Z,3.90
2022-11-09T22:03:55.312Z,3.53
2022-11-09T22:06:22.015Z,3.38
2022-11-09T22:08:48.859Z,4.05
2022-11-09T22:11:17.619Z,3.70
2022-11-09T22:14:02.902Z,3.30
2022-11-09T22:16:34.128Z,3.35
2022-11-09T22:19:29.933Z,3.05
2022-11-09T22:21:56.483Z,3.13
2022-11-09T22:24:22.903Z,2.67
2022-11-09T22:26:49.327Z,3.15
2022-11-09T22:29:15.722Z,3.38
2022-11-09T22:31:42.168Z,2.50
2022-11-09T22:34:08.615Z,1.90
2022-11-09T22:36:35.041Z,2.13
2022-11-09T22:39:01.490Z,1.80
2022-11-09T22:41:27.878Z,2.10
2022-11-09T22:43:56.472Z,1.45
2022-11-09T22:46:22.922Z,1.40
2022-11-09T22:48:49.633Z,1.70
2022-11-09T22:51:17.642Z,1.13
2022-11-09T22:53:47.916Z,1.40
2022-11-09T22:56:14.327Z,1.15
2022-11-09T22:58:40.736Z,0.93
2022-11-09T23:01:18.556Z,1.15
2022-11-09T23:03:45.644Z,1.25
2022-11-09T23:06:22.267Z,1.13
2022-11-09T23:08:48.981Z,1.00
2022-11-09T23:11:19.000Z,1.05
2022-11-09T23:13:49.191Z,1.20
2022-11-09T23:16:16.000Z,1.08
2022-11-09T23:18:54.297Z,0.95
2022-11-09T23:21:20.722Z,1.17
2022-11-09T23:23:47.955Z,1.20
2022-11-09T23:26:15.020Z,1.10
2022-11-09T23:28:41.755Z,1.17
2022-11-09T23:31:10.880Z,1.10
2022-11-09T23:33:38.116Z,1.20
2022-11-09T23:36:06.062Z,1.40
2022-11-09T23:38:33.907Z,1.58
2022-11-09T23:41:04.938Z,2.13
2022-11-09T23:43:31.640Z,1.90
2022-11-09T23:46:06.513Z,1.88
2022-11-09T23:48:33.087Z,2.42
2022-11-09T23:51:00.876Z,2.10
2022-11-09T23:53:28.927Z,1.80
2022-11-09T23:56:00.784Z,1.90
2022-11-09T23:58:27.268Z,1.77
